Farmington, Utah
Current Conditions -  °F | °C
As of 3:58 PM on Wednesday 26 Nov 2014 (Local Time) from KHIF Reporting Station
Clear Clear  
Wind Chill: 56°   Ceiling: Unl
Heat Index: 56°   Visibility: 10mi
Dew Point: 28°   Wind: 2mph
Humidity: 35%   Direction: 170°S
Pressure: 30.36"   Gusts: NA
Location:  40.98°N, 111.88°W
Report Text: KHIF 262258Z AUTO 17002KT 10SM CLR 13/M02 A3036 RMK AO2 SLP264 T01311021
Loading
Personal Weather Stations






























Interactive Weather Map New forecast layout! Learn more

10-Day Weather Forecast

Advertisements
Track Severe Weather on mobile